Time;durP1;ratioP1;P1;durP2;ratioP2;P2;SDS_P1;SDS_P2;PMS_P1;PMS_P2;Temp;Humidity;BMP_temperature;BMP_pressure;BME280_temperature;BME280_humidity;BME280_pressure;Samples;Min_cycle;Max_cycle;Signal;HPM_P1;HPM_P2
2023/06/02 00:02:29;;;;;;;8.32;3.20;;;;;;;10.89;82.99;102086.69;5072292;28;20032;-74
2023/06/02 00:04:59;;;;;;;9.27;2.95;;;;;;;10.86;83.48;102082.53;5090044;28;20031;-74
2023/06/02 00:07:28;;;;;;;6.97;3.28;;;;;;;10.90;83.50;102094.56;5090280;28;20032;-74
2023/06/02 00:09:55;;;;;;;9.15;2.85;;;;;;;10.84;83.31;102079.19;5090344;28;20433;-73
2023/06/02 00:12:21;;;;;;;6.43;3.05;;;;;;;10.81;83.04;102084.88;5090226;28;20119;-74
2023/06/02 00:14:48;;;;;;;7.30;3.30;;;;;;;10.81;83.10;102084.03;5072095;28;20534;-73
2023/06/02 00:17:14;;;;;;;6.07;2.60;;;;;;;10.74;83.39;102075.84;5089921;28;20039;-73
2023/06/02 00:19:42;;;;;;;12.90;5.28;;;;;;;10.79;83.28;102076.19;5108893;28;20035;-74
2023/06/02 00:22:13;;;;;;;8.98;2.85;;;;;;;10.78;83.21;102079.88;5089907;28;20148;-74
2023/06/02 00:24:40;;;;;;;7.55;2.88;;;;;;;10.81;82.79;102084.88;5089760;28;20031;-74
2023/06/02 00:27:07;;;;;;;6.00;2.70;;;;;;;10.80;82.26;102082.38;5089907;28;20032;-74
2023/06/02 00:29:32;;;;;;;4.97;2.78;;;;;;;10.78;81.13;102077.19;5089856;28;20024;-74
2023/06/02 00:31:57;;;;;;;10.70;3.47;;;;;;;10.75;81.43;102080.22;5071503;28;20138;-73
2023/06/02 00:34:23;;;;;;;7.55;3.00;;;;;;;10.67;80.37;102067.72;5089601;28;20123;-74
2023/06/02 00:36:48;;;;;;;8.05;3.35;;;;;;;10.72;81.64;102080.56;5071619;28;20046;-74
2023/06/02 00:39:13;;;;;;;9.23;3.83;;;;;;;10.65;81.16;102071.53;5089436;28;20559;-74
2023/06/02 00:41:39;;;;;;;7.20;3.72;;;;;;;10.62;80.90;102077.22;5071474;28;20075;-74
2023/06/02 00:44:05;;;;;;;15.07;3.40;;;;;;;10.59;80.56;102072.22;5089540;28;20036;-74
2023/06/02 00:46:30;;;;;;;10.75;4.03;;;;;;;10.59;80.47;102075.72;5071393;28;20035;-74
2023/06/02 00:48:56;;;;;;;8.90;3.40;;;;;;;10.53;80.88;102077.22;5089712;28;20028;-74
2023/06/02 00:51:22;;;;;;;7.80;3.20;;;;;;;10.51;81.18;102067.72;5089567;28;20071;-74
2023/06/02 00:53:48;;;;;;;12.10;3.67;;;;;;;10.53;81.22;102085.22;5089302;28;20028;-74
2023/06/02 00:56:13;;;;;;;12.43;4.07;;;;;;;10.50;81.02;102072.19;5089502;28;20417;-74
2023/06/02 00:58:41;;;;;;;7.35;3.20;;;;;;;10.47;80.32;102077.03;5089391;28;20032;-74
2023/06/02 01:01:12;;;;;;;8.25;2.95;;;;;;;10.42;80.13;102072.19;5095212;28;20032;-74
2023/06/02 01:03:39;;;;;;;15.57;3.70;;;;;;;10.43;80.08;102079.22;5108950;28;20036;-73
2023/06/02 01:06:06;;;;;;;6.00;2.95;;;;;;;10.40;81.08;102073.34;5109067;28;20032;-74
2023/06/02 01:08:34;;;;;;;8.98;3.00;;;;;;;10.38;80.94;102075.38;5108753;28;20028;-74
2023/06/02 01:11:00;;;;;;;10.52;3.45;;;;;;;10.40;81.21;102081.34;5108839;28;20094;-74
2023/06/02 01:13:25;;;;;;;12.43;3.72;;;;;;;10.40;81.58;102084.03;5108756;28;20106;-74
2023/06/02 01:15:51;;;;;;;8.68;3.97;;;;;;;10.40;81.79;102082.22;5091864;28;20409;-74
2023/06/02 01:18:17;;;;;;;7.38;2.97;;;;;;;10.43;81.54;102083.72;5089360;28;20089;-74
2023/06/02 01:20:44;;;;;;;10.07;2.85;;;;;;;10.40;80.80;102078.69;5089448;28;20115;-74
2023/06/02 01:23:16;;;;;;;8.27;3.17;;;;;;;10.44;81.92;102080.88;5089304;28;20040;-74
2023/06/02 01:25:42;;;;;;;10.90;3.63;;;;;;;10.45;82.59;102079.88;5070998;28;20012;-74
2023/06/02 01:28:08;;;;;;;9.07;2.92;;;;;;;10.43;81.50;102076.53;5089122;28;20662;-74
2023/06/02 01:30:34;;;;;;;22.80;4.75;;;;;;;10.44;82.13;102070.19;5089224;28;20031;-74
2023/06/02 01:33:05;;;;;;;9.18;3.10;;;;;;;10.45;81.97;102073.69;5089342;28;20032;-74
2023/06/02 01:35:35;;;;;;;10.00;3.88;;;;;;;10.44;81.75;102074.69;5088887;28;20719;-73
2023/06/02 01:38:01;;;;;;;7.18;2.78;;;;;;;10.45;81.23;102069.22;5071063;28;20429;-74
2023/06/02 01:40:28;;;;;;;8.45;2.97;;;;;;;10.43;81.69;102062.38;5088990;28;20059;-74
2023/06/02 01:42:56;;;;;;;10.50;3.80;;;;;;;10.43;81.81;102063.22;5088959;28;20031;-74
2023/06/02 01:45:21;;;;;;;10.35;3.40;;;;;;;10.46;81.57;102064.72;5089046;28;20036;-74
2023/06/02 01:47:46;;;;;;;7.90;2.65;;;;;;;10.47;82.18;102069.84;5089116;28;20456;-74
2023/06/02 01:50:12;;;;;;;10.57;2.75;;;;;;;10.48;81.07;102071.53;5088949;28;20439;-74
2023/06/02 01:52:37;;;;;;;12.35;3.13;;;;;;;10.42;81.42;102060.69;5088812;28;20035;-74
2023/06/02 01:55:03;;;;;;;9.75;3.33;;;;;;;10.48;81.63;102070.72;5108390;28;20111;-74
2023/06/02 01:57:29;;;;;;;8.52;3.60;;;;;;;10.50;81.90;102071.38;5108347;28;20031;-74
2023/06/02 01:59:55;;;;;;;9.07;3.08;;;;;;;10.54;81.83;102059.38;5101295;28;20059;-74
2023/06/02 02:02:20;;;;;;;7.90;3.45;;;;;;;10.48;81.90;102062.72;5088964;28;20491;-74
2023/06/02 02:04:45;;;;;;;13.07;4.07;;;;;;;10.55;81.60;102068.19;5089480;28;20093;-74
2023/06/02 02:07:13;;;;;;;11.73;3.60;;;;;;;10.50;82.09;102061.53;5092483;28;20039;-74
2023/06/02 02:09:39;;;;;;;12.27;4.80;;;;;;;10.55;82.06;102065.53;5092552;28;20034;-74
2023/06/02 02:12:05;;;;;;;11.68;4.10;;;;;;;10.55;82.04;102068.19;5092369;28;20553;-74
2023/06/02 02:14:30;;;;;;;40.13;5.68;;;;;;;10.59;80.77;102070.38;5092390;28;20339;-73
2023/06/02 02:16:56;;;;;;;9.48;3.78;;;;;;;10.51;82.10;102065.88;5092291;28;20032;-74
2023/06/02 02:19:23;;;;;;;5.82;3.25;;;;;;;10.52;82.29;102072.03;5092312;28;20034;-74
2023/06/02 02:21:48;;;;;;;8.65;3.30;;;;;;;10.52;82.14;102067.53;5092260;28;20047;-74
2023/06/02 02:24:16;;;;;;;11.10;4.43;;;;;;;10.52;81.88;102067.53;5092094;28;20039;-74
2023/06/02 02:26:41;;;;;;;10.07;3.70;;;;;;;10.50;82.64;102060.69;5092423;28;20028;-74
2023/06/02 02:29:06;;;;;;;6.28;3.08;;;;;;;10.53;82.94;102061.22;5092090;28;20042;-74
2023/06/02 02:31:32;;;;;;;10.13;3.80;;;;;;;10.56;83.26;102068.06;5092026;28;20127;-74
2023/06/02 02:33:57;;;;;;;9.32;3.10;;;;;;;10.49;82.75;102064.38;5092176;28;20069;-74
2023/06/02 02:36:22;;;;;;;13.52;3.75;;;;;;;10.55;82.85;102066.38;5091839;28;20115;-74
2023/06/02 02:38:48;;;;;;;13.02;3.95;;;;;;;10.52;83.05;102070.19;5091906;28;20032;-74
2023/06/02 02:41:14;;;;;;;8.85;3.15;;;;;;;10.49;83.16;102062.53;5091218;28;20060;-74
2023/06/02 02:43:39;;;;;;;12.85;4.25;;;;;;;10.48;83.83;102065.38;5091823;28;20505;-74
2023/06/02 02:46:04;;;;;;;13.88;3.97;;;;;;;10.49;83.79;102065.19;5091806;28;20054;-74
2023/06/02 02:48:30;;;;;;;9.60;4.00;;;;;;;10.50;83.12;102068.69;5091793;28;20032;-74
2023/06/02 02:50:55;;;;;;;9.20;3.30;;;;;;;10.51;83.38;102065.88;5091735;28;20088;-74
2023/06/02 02:53:21;;;;;;;12.32;4.78;;;;;;;10.53;83.51;102061.22;5091652;28;20027;-73
2023/06/02 02:55:50;;;;;;;9.55;3.75;;;;;;;10.56;83.66;102067.19;5091570;28;20047;-74
2023/06/02 02:58:16;;;;;;;13.00;5.10;;;;;;;10.51;83.21;102055.19;5091641;28;20114;-73
2023/06/02 03:00:41;;;;;;;9.50;4.40;;;;;;;10.55;83.41;102069.03;5091455;28;20681;-74
2023/06/02 03:03:07;;;;;;;12.48;4.18;;;;;;;10.53;84.66;102065.69;5110500;28;20028;-74
2023/06/02 03:05:34;;;;;;;17.02;5.60;;;;;;;10.50;83.65;102058.84;5103289;28;20139;-73
2023/06/02 03:08:01;;;;;;;8.43;3.38;;;;;;;10.46;83.50;102062.03;5073723;28;20032;-74
2023/06/02 03:10:26;;;;;;;9.10;3.55;;;;;;;10.38;82.89;102062.03;5099754;28;20039;-74
2023/06/02 03:12:51;;;;;;;11.60;4.53;;;;;;;10.43;82.24;102078.38;5110942;28;20023;-74
2023/06/02 03:15:17;;;;;;;8.00;3.38;;;;;;;10.28;81.27;102065.69;5110429;28;20049;-73
2023/06/02 03:17:45;;;;;;;10.35;3.65;;;;;;;10.27;81.68;102081.81;5110511;28;20046;-74
2023/06/02 03:20:11;;;;;;;13.40;4.30;;;;;;;10.19;82.04;102087.97;5110577;28;20030;-73
2023/06/02 03:22:37;;;;;;;13.02;2.92;;;;;;;10.16;81.95;102087.44;5110470;28;20482;-74
2023/06/02 03:25:02;;;;;;;13.68;3.30;;;;;;;10.14;82.03;102079.63;5092009;28;20027;-74
2023/06/02 03:27:28;;;;;;;12.65;5.57;;;;;;;10.12;82.52;102080.78;5110492;28;20020;-74
2023/06/02 03:29:53;;;;;;;7.78;3.25;;;;;;;10.05;82.72;102072.59;5110568;28;20038;-74
2023/06/02 03:32:19;;;;;;;10.05;3.72;;;;;;;10.07;82.34;102082.09;5110262;28;20375;-74
2023/06/02 03:34:46;;;;;;;10.48;4.28;;;;;;;10.08;82.03;102077.59;5110279;28;20031;-74
2023/06/02 03:37:12;;;;;;;11.32;4.35;;;;;;;10.08;82.78;102089.09;5090510;28;20031;-74
2023/06/02 03:39:37;;;;;;;14.48;4.57;;;;;;;10.01;82.36;102073.94;5090712;28;20036;-74
2023/06/02 03:42:03;;;;;;;9.70;3.45;;;;;;;10.05;82.45;102085.94;5090587;28;20048;-74
2023/06/02 03:44:28;;;;;;;8.43;3.40;;;;;;;10.06;82.56;102079.59;5072396;28;20042;-74
2023/06/02 03:46:54;;;;;;;10.07;3.95;;;;;;;10.06;82.47;102085.78;5090683;28;20045;-74
2023/06/02 03:49:19;;;;;;;11.35;3.90;;;;;;;10.03;82.43;102079.91;5090654;28;20483;-74
2023/06/02 03:51:46;;;;;;;11.10;3.75;;;;;;;10.02;82.66;102087.09;5090519;28;20036;-74
2023/06/02 03:54:12;;;;;;;12.95;5.03;;;;;;;10.00;83.31;102082.91;5090744;28;20020;-74
2023/06/02 03:56:38;;;;;;;11.32;3.80;;;;;;;10.02;83.09;102086.25;5101012;28;20425;-74
2023/06/02 03:59:03;;;;;;;14.05;5.07;;;;;;;10.02;83.90;102086.25;5091505;28;20035;-74
2023/06/02 04:01:28;;;;;;;13.77;3.80;;;;;;;10.00;83.23;102073.09;5109853;28;20043;-74
2023/06/02 04:03:54;;;;;;;8.15;4.18;;;;;;;9.96;83.38;102082.41;5109511;28;20040;-74
2023/06/02 04:06:19;;;;;;;7.78;2.88;;;;;;;9.99;83.40;102083.94;5091340;28;20145;-74
2023/06/02 04:08:47;;;;;;;11.90;3.70;;;;;;;9.97;83.11;102094.75;5109822;28;20034;-74
2023/06/02 04:11:13;;;;;;;5.85;2.78;;;;;;;9.99;82.94;102100.75;5109928;28;20206;-74
2023/06/02 04:13:39;;;;;;;16.02;3.58;;;;;;;9.94;83.03;102099.56;5109598;28;20038;-74
2023/06/02 04:16:04;;;;;;;7.40;3.72;;;;;;;9.92;83.47;102102.38;5109543;28;20058;-74
2023/06/02 04:18:31;;;;;;;16.63;2.70;;;;;;;9.92;83.76;102101.56;5109508;28;20448;-74
2023/06/02 04:20:57;;;;;;;9.05;2.45;;;;;;;9.92;83.84;102106.88;5109453;28;20042;-74
2023/06/02 04:23:22;;;;;;;12.98;3.97;;;;;;;9.94;84.14;102104.91;5109518;28;20040;-74
2023/06/02 04:25:48;;;;;;;8.18;3.53;;;;;;;9.93;83.84;102095.22;5109269;28;20031;-74
2023/06/02 04:28:13;;;;;;;12.27;3.28;;;;;;;9.95;83.22;102102.06;5109047;28;20110;-74
2023/06/02 04:30:39;;;;;;;12.75;3.95;;;;;;;9.92;81.68;102097.06;5109204;28;20496;-74
2023/06/02 04:33:05;;;;;;;10.80;3.65;;;;;;;9.94;81.03;102100.41;5109343;28;20496;-74
2023/06/02 04:35:30;;;;;;;13.50;3.17;;;;;;;9.92;81.35;102104.22;5108971;28;20055;-74
2023/06/02 04:37:56;;;;;;;8.10;3.08;;;;;;;9.89;81.61;102100.03;5109179;28;20032;-74
2023/06/02 04:40:21;;;;;;;5.97;2.40;;;;;;;9.88;81.18;102091.22;5091106;28;20488;-74
2023/06/02 04:42:47;;;;;;;9.27;3.00;;;;;;;9.91;80.96;102089.22;5109191;28;20608;-75
2023/06/02 04:45:12;;;;;;;8.65;2.58;;;;;;;9.91;80.92;102086.56;5090823;28;20114;-74
2023/06/02 04:47:42;;;;;;;9.43;4.50;;;;;;;9.92;81.07;102088.22;5109037;28;20031;-74
2023/06/02 04:50:11;;;;;;;10.13;3.28;;;;;;;9.99;81.12;102091.91;5102604;28;20088;-74
2023/06/02 04:52:40;;;;;;;6.28;2.85;;;;;;;9.94;80.55;102087.06;5108997;28;20039;-73
2023/06/02 04:55:11;;;;;;;11.25;3.00;;;;;;;9.96;80.59;102098.41;5108890;28;20037;-74
2023/06/02 04:57:36;;;;;;;8.00;3.05;;;;;;;9.91;81.30;102090.06;5108884;28;20031;-74
2023/06/02 05:00:04;;;;;;;5.50;2.58;;;;;;;9.98;81.54;102100.91;5090930;28;20038;-74
2023/06/02 05:02:30;;;;;;;6.72;2.50;;;;;;;9.99;81.40;102106.06;5109089;28;20046;-74
2023/06/02 05:04:56;;;;;;;5.15;2.58;;;;;;;9.99;81.96;102105.25;5109130;28;20031;-74
2023/06/02 05:07:21;;;;;;;6.70;2.80;;;;;;;10.02;82.42;102111.06;5109148;28;20339;-74
2023/06/02 05:09:46;;;;;;;13.10;2.45;;;;;;;10.02;81.66;102111.06;5109257;28;20092;-74
2023/06/02 05:12:12;;;;;;;13.57;3.25;;;;;;;10.01;82.49;102113.91;5107181;28;20038;-74
2023/06/02 05:14:37;;;;;;;10.48;3.50;;;;;;;10.00;83.30;102113.06;5089705;28;20117;-74
2023/06/02 05:17:04;;;;;;;10.35;2.60;;;;;;;10.01;81.65;102111.25;5089453;28;20509;-74
2023/06/02 05:19:30;;;;;;;7.35;2.85;;;;;;;10.05;83.66;102115.25;5093605;28;20051;-74
2023/06/02 05:21:55;;;;;;;8.57;2.05;;;;;;;10.05;82.09;102105.41;5094151;28;20015;-74
2023/06/02 05:24:20;;;;;;;5.97;2.35;;;;;;;10.03;82.75;102115.44;5093732;28;20440;-74
2023/06/02 05:26:46;;;;;;;6.70;2.30;;;;;;;10.04;82.66;102111.75;5071045;28;20731;-74
2023/06/02 05:29:12;;;;;;;7.60;2.45;;;;;;;10.05;82.82;102120.59;5089595;28;20151;-74
2023/06/02 05:31:37;;;;;;;10.90;2.83;;;;;;;10.11;83.05;102119.91;5089372;28;20081;-74
2023/06/02 05:34:03;;;;;;;8.48;2.55;;;;;;;10.08;82.17;102113.09;5088917;28;20036;-74
2023/06/02 05:36:28;;;;;;;8.55;2.80;;;;;;;10.07;82.57;102116.75;5089384;28;20071;-74
2023/06/02 05:38:54;;;;;;;12.93;5.93;;;;;;;10.13;83.52;102117.09;5091744;28;20035;-74
2023/06/02 05:41:19;;;;;;;11.68;3.60;;;;;;;10.12;81.44;102118.13;5111860;28;20126;-73
2023/06/02 05:43:44;;;;;;;12.63;3.30;;;;;;;10.02;81.12;102110.25;5112723;28;20028;-74
2023/06/02 05:46:10;;;;;;;11.05;3.30;;;;;;;10.04;81.94;102124.25;5112720;28;20030;-74
2023/06/02 05:48:35;;;;;;;10.98;2.35;;;;;;;10.05;81.46;102112.59;5112660;28;20023;-74
2023/06/02 05:51:01;;;;;;;10.38;2.88;;;;;;;10.03;81.88;102117.25;5112255;28;20432;-74
2023/06/02 05:53:26;;;;;;;8.82;2.30;;;;;;;10.04;80.87;102124.25;5112607;28;20078;-74
2023/06/02 05:55:51;;;;;;;7.28;3.15;;;;;;;10.02;80.86;102120.91;5112310;28;20020;-74
2023/06/02 05:58:19;;;;;;;14.20;3.75;;;;;;;10.07;81.27;102124.75;5112752;28;20131;-74
2023/06/02 06:00:44;;;;;;;7.57;2.58;;;;;;;10.09;81.55;102125.44;5112400;28;20373;-74
2023/06/02 06:03:10;;;;;;;14.98;4.30;;;;;;;10.05;81.12;102115.25;5112206;28;20110;-74
2023/06/02 06:05:35;;;;;;;8.07;2.65;;;;;;;10.15;81.67;102125.78;5112469;28;20110;-74
2023/06/02 06:08:01;;;;;;;10.35;2.70;;;;;;;10.17;80.98;102121.13;5098381;28;20034;-74
2023/06/02 06:10:26;;;;;;;22.85;4.35;;;;;;;10.18;80.97;102120.13;5092805;28;20127;-74
2023/06/02 06:12:52;;;;;;;10.80;3.17;;;;;;;10.12;79.63;102123.44;5092625;28;20034;-74
2023/06/02 06:15:17;;;;;;;5.00;2.42;;;;;;;10.13;79.54;102123.28;5092749;28;20023;-74
2023/06/02 06:17:50;;;;;;;5.28;2.80;;;;;;;10.13;80.88;102125.09;5092460;28;20028;-74
2023/06/02 06:20:16;;;;;;;10.70;2.70;;;;;;;10.14;78.95;102121.44;5092638;28;20036;-74
2023/06/02 06:22:42;;;;;;;15.45;4.30;;;;;;;10.11;79.36;102125.25;5092187;28;20051;-74
2023/06/02 06:25:08;;;;;;;8.57;2.45;;;;;;;10.14;79.85;102116.97;5092453;28;20024;-74
2023/06/02 06:27:34;;;;;;;6.97;2.60;;;;;;;10.17;79.27;102123.81;5092269;28;20119;-74
2023/06/02 06:29:59;;;;;;;10.38;2.75;;;;;;;10.24;79.03;102127.47;5074690;28;20032;-73
2023/06/02 06:32:24;;;;;;;5.80;2.40;;;;;;;10.25;78.52;102134.47;5096214;28;20084;-73
2023/06/02 06:34:50;;;;;;;10.52;3.67;;;;;;;10.23;78.43;102128.47;5111599;28;20077;-73
2023/06/02 06:37:15;;;;;;;10.85;3.13;;;;;;;10.19;77.26;102124.44;5111660;28;20032;-73
2023/06/02 06:39:41;;;;;;;11.25;2.80;;;;;;;10.19;78.26;102130.63;5111597;28;20371;-73
2023/06/02 06:42:07;;;;;;;10.38;3.13;;;;;;;10.28;78.22;102136.84;5093130;28;20410;-73
2023/06/02 06:44:33;;;;;;;5.95;3.47;;;;;;;10.30;78.17;102134.84;5111478;28;20036;-73
2023/06/02 06:46:58;;;;;;;8.88;4.00;;;;;;;10.32;78.56;102140.84;5111461;28;20647;-73
2023/06/02 06:49:23;;;;;;;9.48;2.33;;;;;;;10.35;78.25;102140.53;5105000;28;20618;-73
2023/06/02 06:51:49;;;;;;;7.38;2.63;;;;;;;10.33;77.96;102131.88;5090844;28;20044;-73
2023/06/02 06:54:15;;;;;;;5.93;3.15;;;;;;;10.37;77.68;102130.53;5091605;28;20080;-73
2023/06/02 06:56:42;;;;;;;8.52;2.63;;;;;;;10.44;77.16;102134.22;5091741;28;20063;-73
2023/06/02 06:59:09;;;;;;;7.38;2.38;;;;;;;10.46;78.71;102137.56;5091802;28;20046;-74
2023/06/02 07:01:35;;;;;;;7.22;2.90;;;;;;;10.51;76.95;102121.88;5091637;28;20044;-76
2023/06/02 07:04:00;;;;;;;8.02;3.53;;;;;;;10.53;76.41;102132.38;5105067;28;20074;-73
2023/06/02 07:06:26;;;;;;;12.18;3.33;;;;;;;10.55;76.23;102126.88;5111162;28;20034;-78
2023/06/02 07:08:51;;;;;;;7.80;2.60;;;;;;;10.60;76.75;102127.22;5103127;28;20023;-74
2023/06/02 07:11:16;;;;;;;7.53;2.15;;;;;;;10.76;76.97;102124.56;5110718;28;20035;-74
2023/06/02 07:13:42;;;;;;;15.55;3.13;;;;;;;10.88;76.17;102125.09;5110778;28;20024;-74
2023/06/02 07:16:07;;;;;;;13.35;3.20;;;;;;;10.93;77.22;102123.56;5110616;28;20036;-74
2023/06/02 07:18:33;;;;;;;11.70;2.55;;;;;;;11.02;75.56;102137.75;5110863;28;20066;-74
2023/06/02 07:20:59;;;;;;;9.52;2.60;;;;;;;10.96;75.53;102131.25;5101356;28;20378;-72
2023/06/02 07:23:25;;;;;;;5.47;2.78;;;;;;;10.99;75.62;102132.75;5094735;28;20031;-72
2023/06/02 07:25:50;;;;;;;11.38;3.10;;;;;;;10.91;74.22;102130.09;5093380;28;20119;-74
2023/06/02 07:28:15;;;;;;;8.25;2.78;;;;;;;11.02;74.57;102144.91;5094804;28;20027;-73
2023/06/02 07:30:52;;;;;;;12.65;3.28;;;;;;;11.05;75.91;102145.41;5095226;28;20031;-72
2023/06/02 07:33:18;;;;;;;6.40;3.78;;;;;;;11.10;75.03;102136.91;5095484;28;20484;-74
2023/06/02 07:35:44;;;;;;;7.22;2.80;;;;;;;11.14;74.56;102133.75;5095443;28;20059;-74
2023/06/02 07:38:10;;;;;;;14.20;3.03;;;;;;;11.19;74.39;102144.75;5095210;28;20068;-72
2023/06/02 07:40:35;;;;;;;9.85;3.33;;;;;;;11.14;74.09;102143.59;5095824;28;20035;-71
2023/06/02 07:43:01;;;;;;;10.68;3.53;;;;;;;11.20;74.15;102142.91;5076591;28;20452;-78
2023/06/02 07:45:26;;;;;;;10.70;3.05;;;;;;;11.37;73.29;102149.03;5094079;28;20737;-73
2023/06/02 07:47:51;;;;;;;10.25;3.85;;;;;;;11.45;73.63;102143.72;5094313;28;20036;-74
2023/06/02 07:50:18;;;;;;;12.05;3.13;;;;;;;11.52;72.88;102139.31;5094960;28;20023;-73
2023/06/02 07:52:44;;;;;;;8.73;2.60;;;;;;;11.56;74.09;102127.31;5094269;28;20497;-72
2023/06/02 07:55:10;;;;;;;7.05;2.17;;;;;;;11.67;73.27;102141.31;5094883;28;20378;-72
2023/06/02 07:57:35;;;;;;;11.38;4.47;;;;;;;11.63;72.04;102127.44;5096005;28;20501;-74
2023/06/02 08:00:16;;;;;;;6.57;2.65;;;;;;;11.67;72.36;102131.44;5094675;28;20136;-71
2023/06/02 08:02:48;;;;;;;14.68;2.70;;;;;;;11.58;71.91;102124.44;5075214;28;20019;-73
2023/06/02 08:05:15;;;;;;;5.82;2.08;;;;;;;11.81;72.98;102140.56;5095126;28;20043;-71
2023/06/02 08:07:41;;;;;;;14.43;2.85;;;;;;;11.87;72.13;102128.38;5094885;28;20030;-74
2023/06/02 08:10:07;;;;;;;8.23;2.30;;;;;;;11.99;72.46;102137.69;5093865;28;20027;-72
2023/06/02 08:12:33;;;;;;;4.95;2.70;;;;;;;12.10;70.55;102137.28;5094325;28;20027;-73
2023/06/02 08:14:59;;;;;;;8.43;2.92;;;;;;;12.18;71.50;102136.41;5091997;28;20042;-72
2023/06/02 08:17:29;;;;;;;8.75;2.53;;;;;;;12.53;70.17;102131.53;5076018;28;20455;-74
2023/06/02 08:20:03;;;;;;;9.68;4.22;;;;;;;13.33;67.66;102123.81;5093740;28;20102;-73
2023/06/02 08:22:30;;;;;;;12.98;2.40;;;;;;;13.24;65.85;102124.06;5100729;28;20067;-74
2023/06/02 08:24:56;;;;;;;11.68;3.13;;;;;;;13.02;67.01;102137.34;5109426;28;20027;-75
2023/06/02 08:27:23;;;;;;;15.32;3.28;;;;;;;12.97;67.23;102136.19;5109384;28;20020;-75
2023/06/02 08:29:51;;;;;;;10.82;2.63;;;;;;;13.06;66.40;102132.44;5091114;28;20028;-75
2023/06/02 08:32:17;;;;;;;4.72;2.20;;;;;;;13.18;66.65;102140.84;5109367;28;20080;-75
2023/06/02 08:34:47;;;;;;;11.75;3.08;;;;;;;13.31;66.93;102130.41;5107660;28;20375;-75
2023/06/02 08:37:17;;;;;;;14.77;3.65;;;;;;;13.75;65.23;102129.56;5109407;28;20036;-74
2023/06/02 08:39:47;;;;;;;9.50;2.15;;;;;;;15.30;60.96;102124.53;5109198;28;20557;-75
2023/06/02 08:42:15;;;;;;;9.82;2.65;;;;;;;16.73;55.41;102132.75;5071115;28;20104;-75
2023/06/02 08:44:41;;;;;;;8.15;3.55;;;;;;;17.21;53.50;102129.88;5072016;28;20028;-75
2023/06/02 08:47:11;;;;;;;11.52;2.33;;;;;;;16.78;53.72;102129.47;5089416;28;20036;-75
2023/06/02 08:49:47;;;;;;;7.53;2.45;;;;;;;16.35;55.59;102127.94;5089943;28;20027;-75
2023/06/02 08:52:21;;;;;;;13.48;2.88;;;;;;;16.64;57.07;102126.72;5089858;28;20519;-75
2023/06/02 08:54:47;;;;;;;13.00;2.30;;;;;;;18.73;49.72;102115.91;5089627;28;20038;-75
2023/06/02 08:57:16;;;;;;;7.05;2.72;;;;;;;20.09;44.75;102122.22;5089690;28;20092;-75
2023/06/02 08:59:45;;;;;;;7.72;2.05;;;;;;;20.61;43.70;102121.72;5089805;28;20028;-75
2023/06/02 09:02:10;;;;;;;6.82;2.20;;;;;;;19.70;43.89;102129.78;5089502;28;20032;-75
2023/06/02 09:04:36;;;;;;;9.75;2.53;;;;;;;18.30;47.25;102124.75;5089520;28;20043;-75
2023/06/02 09:07:15;;;;;;;11.25;2.95;;;;;;;17.34;51.10;102126.31;5089615;28;20020;-75
2023/06/02 09:09:43;;;;;;;8.85;3.20;;;;;;;16.57;52.71;102119.69;5089572;28;20028;-75
2023/06/02 09:12:09;;;;;;;9.95;2.85;;;;;;;15.91;54.54;102126.53;5089644;28;20103;-75
2023/06/02 09:14:38;;;;;;;5.50;2.25;;;;;;;15.72;57.14;102124.59;5056875;28;20071;-75
2023/06/02 09:17:23;;;;;;;11.02;3.05;;;;;;;15.54;57.27;102122.41;5093550;28;20024;-75
2023/06/02 09:19:50;;;;;;;7.10;2.58;;;;;;;15.41;58.75;102114.28;5093642;28;20081;-75
2023/06/02 09:22:16;;;;;;;10.80;2.95;;;;;;;15.24;58.58;102125.31;5093616;28;20024;-75
2023/06/02 09:24:41;;;;;;;10.23;3.42;;;;;;;14.85;58.97;102123.16;5093816;28;20035;-76
2023/06/02 09:27:12;;;;;;;12.50;3.03;;;;;;;14.61;59.91;102127.06;5093428;28;20035;-75
2023/06/02 09:29:38;;;;;;;13.98;3.47;;;;;;;14.40;61.58;102126.00;5093714;28;20024;-75
2023/06/02 09:32:10;;;;;;;9.23;3.95;;;;;;;14.32;61.53;102123.44;5093482;28;20032;-75
2023/06/02 09:34:38;;;;;;;10.73;3.13;;;;;;;14.09;61.66;102128.13;5093352;28;20079;-75
2023/06/02 09:37:14;;;;;;;7.85;2.95;;;;;;;13.91;63.41;102123.16;5093192;28;20025;-75
2023/06/02 09:39:45;;;;;;;11.18;4.07;;;;;;;13.87;65.25;102121.88;5074903;28;20032;-75
2023/06/02 09:42:13;;;;;;;14.07;2.70;;;;;;;13.97;64.93;102115.22;5105460;28;20043;-75
2023/06/02 09:44:39;;;;;;;9.15;3.35;;;;;;;14.04;65.98;102117.94;5108136;28;20390;-75
2023/06/02 09:47:22;;;;;;;16.52;4.60;;;;;;;13.99;65.12;102121.22;5112667;28;20043;-73
2023/06/02 09:49:47;;;;;;;7.68;2.90;;;;;;;13.98;66.50;102116.03;5094505;28;20038;-75
2023/06/02 09:52:15;;;;;;;6.63;2.53;;;;;;;14.14;65.05;102120.34;5112459;28;20114;-75
2023/06/02 09:54:45;;;;;;;9.75;2.65;;;;;;;14.27;64.53;102114.28;5095096;28;20435;-75
2023/06/02 09:57:16;;;;;;;7.93;3.67;;;;;;;14.08;64.87;102119.25;5097129;28;20020;-74
2023/06/02 09:59:43;;;;;;;11.23;4.03;;;;;;;13.97;67.03;102127.78;5073852;28;20024;-75
2023/06/02 10:02:09;;;;;;;5.70;2.83;;;;;;;13.86;66.74;102123.75;5092849;28;20043;-75
2023/06/02 10:04:35;;;;;;;7.00;3.42;;;;;;;13.94;67.15;102118.28;5092976;28;20498;-76
2023/06/02 10:07:13;;;;;;;11.90;3.22;;;;;;;14.05;67.64;102110.75;5100543;28;20032;-76
2023/06/02 10:10:37;;;;;;;11.02;4.93;;;;;;;14.22;66.50;102128.28;5111831;28;20029;-75
2023/06/02 10:13:21;;;;;;;11.95;3.45;;;;;;;14.24;66.54;102121.69;5064629;28;20031;-75
2023/06/02 10:16:12;;;;;;;9.98;3.58;;;;;;;14.25;67.74;102122.53;5111911;28;20031;-75
2023/06/02 10:18:37;;;;;;;10.88;4.32;;;;;;;14.38;67.99;102124.53;5112126;28;20432;-75
2023/06/02 10:21:30;;;;;;;6.70;2.80;;;;;;;14.44;66.52;102123.78;5093814;28;20027;-75
2023/06/02 10:24:33;;;;;;;11.02;4.10;;;;;;;14.66;66.86;102111.22;5112253;28;20265;-76
2023/06/02 10:27:12;;;;;;;8.75;3.55;;;;;;;14.99;65.94;102116.88;5091532;28;20024;-76
2023/06/02 10:29:38;;;;;;;11.13;3.45;;;;;;;15.00;65.75;102109.63;5099219;28;20700;-71
2023/06/02 10:32:24;;;;;;;11.32;3.42;;;;;;;15.16;65.65;102103.97;5095418;28;20146;-75
2023/06/02 10:35:00;;;;;;;17.10;4.22;;;;;;;15.26;65.13;102104.44;5086138;28;20031;-79
2023/06/02 10:37:26;;;;;;;9.85;3.20;;;;;;;15.33;65.02;102108.00;5096706;28;20028;-69
2023/06/02 10:39:58;;;;;;;9.05;3.55;;;;;;;15.36;64.60;102104.09;5078596;28;20023;-77
2023/06/02 10:42:25;;;;;;;12.35;3.40;;;;;;;15.50;64.94;102103.13;5094758;28;20105;-74
2023/06/02 10:44:52;;;;;;;8.40;3.50;;;;;;;15.67;65.17;102111.72;5096353;28;20020;-74
2023/06/02 10:47:17;;;;;;;11.25;4.70;;;;;;;15.69;64.88;102107.00;5096396;28;20024;-78
2023/06/02 10:50:01;;;;;;;11.20;3.38;;;;;;;15.61;64.08;102098.22;5094390;28;20510;-80
2023/06/02 10:52:48;;;;;;;8.88;3.10;;;;;;;15.50;64.72;102108.50;5096598;28;20107;-74
2023/06/02 10:55:16;;;;;;;8.73;3.92;;;;;;;15.31;64.91;102110.06;5080942;28;20054;-72
2023/06/02 10:57:55;;;;;;;8.90;3.42;;;;;;;15.22;64.94;102100.50;5096197;28;20024;-75
2023/06/02 11:00:35;;;;;;;7.40;3.17;;;;;;;15.14;65.70;102100.63;5097335;28;20034;-75
2023/06/02 11:03:04;;;;;;;14.70;4.15;;;;;;;15.12;65.41;102108.09;5077743;28;20063;-75
2023/06/02 11:05:31;;;;;;;8.45;4.15;;;;;;;15.03;65.45;102114.63;5096528;28;20176;-72
2023/06/02 11:08:12;;;;;;;11.25;4.07;;;;;;;15.13;66.81;102107.88;5096037;28;20274;-74
2023/06/02 11:10:55;;;;;;;18.52;5.43;;;;;;;15.48;66.43;102102.53;5095198;28;20027;-72
2023/06/02 11:13:22;;;;;;;9.70;3.95;;;;;;;15.51;65.35;102103.97;5093213;28;20019;-71
2023/06/02 11:15:54;;;;;;;8.63;3.70;;;;;;;15.31;66.00;102104.69;5092079;28;20154;-75
2023/06/02 11:18:23;;;;;;;13.50;3.72;;;;;;;15.28;67.17;102099.72;5096614;28;20488;-72
2023/06/02 11:21:00;;;;;;;10.38;3.47;;;;;;;15.28;65.80;102104.25;5090675;28;20035;-70
2023/06/02 11:23:26;;;;;;;12.45;3.65;;;;;;;15.31;65.78;102114.63;5090870;28;20098;-71
2023/06/02 11:26:15;;;;;;;12.13;4.72;;;;;;;15.26;66.75;102104.44;5090157;28;20028;-71